createdAt,value
2022-09-17T00:01:54.385Z,12.70
2022-09-17T00:04:23.638Z,12.66
2022-09-17T00:06:52.551Z,12.64
2022-09-17T00:09:21.582Z,12.60
2022-09-17T00:11:50.505Z,12.58
2022-09-17T00:14:19.929Z,12.58
2022-09-17T00:16:50.396Z,12.57
2022-09-17T00:19:23.083Z,12.57
2022-09-17T00:21:52.714Z,12.58
2022-09-17T00:24:22.967Z,12.60
2022-09-17T00:26:52.160Z,12.63
2022-09-17T00:29:21.564Z,12.66
2022-09-17T00:31:50.694Z,12.68
2022-09-17T00:34:21.119Z,12.70
2022-09-17T00:36:50.296Z,12.74
2022-09-17T00:39:19.243Z,12.73
2022-09-17T00:41:48.076Z,12.77
2022-09-17T00:44:49.723Z,12.76
2022-09-17T00:47:30.652Z,12.85
2022-09-17T00:50:07.233Z,12.87
2022-09-17T00:52:42.479Z,12.83
2022-09-17T00:55:20.679Z,12.95
2022-09-17T00:57:55.059Z,12.62
2022-09-17T01:00:24.911Z,12.92
2022-09-17T01:02:54.421Z,12.96
2022-09-17T01:05:34.899Z,12.51
2022-09-17T01:08:12.394Z,12.95
2022-09-17T01:11:12.094Z,12.87
2022-09-17T01:13:59.081Z,12.43
2022-09-17T01:16:34.467Z,13.05
2022-09-17T01:19:23.453Z,13.03
2022-09-17T01:22:04.939Z,12.98
2022-09-17T01:24:51.165Z,12.16
2022-09-17T01:28:08.869Z,13.07
2022-09-17T01:31:04.513Z,13.04
2022-09-17T01:33:43.562Z,13.14
2022-09-17T01:36:25.683Z,13.11
2022-09-17T01:39:03.290Z,13.11
2022-09-17T01:41:41.574Z,13.12
2022-09-17T01:44:16.779Z,13.07
2022-09-17T01:46:54.601Z,12.89
2022-09-17T01:49:26.082Z,13.06
2022-09-17T01:51:56.567Z,13.13
2022-09-17T01:54:29.353Z,13.14
2022-09-17T01:57:04.849Z,13.03
2022-09-17T01:59:39.133Z,12.98
2022-09-17T02:02:15.609Z,13.01
2022-09-17T02:04:56.953Z,12.95
2022-09-17T02:07:27.092Z,12.99
2022-09-17T02:10:01.691Z,12.98
2022-09-17T02:12:36.771Z,12.75
2022-09-17T02:15:11.553Z,12.97
2022-09-17T02:17:47.314Z,12.95
2022-09-17T02:20:22.185Z,12.96
2022-09-17T02:22:58.634Z,12.74
2022-09-17T02:25:32.735Z,13.01
2022-09-17T02:28:09.581Z,13.02
2022-09-17T02:30:38.712Z,13.06
2022-09-17T02:33:13.855Z,13.03
2022-09-17T02:35:43.698Z,13.02
2022-09-17T02:38:13.146Z,13.06
2022-09-17T02:40:49.016Z,13.00
2022-09-17T02:43:27.618Z,12.97
2022-09-17T02:46:12.077Z,12.96
2022-09-17T02:49:21.822Z,12.95
2022-09-17T02:52:04.672Z,12.96
2022-09-17T02:54:42.186Z,12.91
2022-09-17T02:57:21.583Z,12.89
2022-09-17T02:59:57.991Z,12.89
2022-09-17T03:02:33.273Z,12.91
2022-09-17T03:05:04.946Z,12.91
2022-09-17T03:07:34.188Z,12.91
2022-09-17T03:10:03.140Z,12.85
2022-09-17T03:12:32.142Z,12.92
2022-09-17T03:15:01.072Z,12.89
2022-09-17T03:17:29.937Z,12.86
2022-09-17T03:19:58.844Z,12.92
2022-09-17T03:22:29.343Z,12.89
2022-09-17T03:24:58.394Z,12.91
2022-09-17T03:27:27.213Z,12.90
2022-09-17T03:29:56.238Z,12.94
2022-09-17T03:32:25.403Z,12.94
2022-09-17T03:34:55.090Z,12.96
2022-09-17T03:37:24.037Z,12.89
2022-09-17T03:39:54.383Z,12.91
2022-09-17T03:42:23.453Z,12.88
2022-09-17T03:44:52.475Z,12.89
2022-09-17T03:47:21.511Z,12.87
2022-09-17T03:49:52.292Z,12.85
2022-09-17T03:52:21.284Z,12.88
2022-09-17T03:54:50.325Z,12.91
2022-09-17T03:57:20.669Z,12.89
2022-09-17T03:59:49.514Z,12.89
2022-09-17T04:02:18.618Z,12.93
2022-09-17T04:04:47.688Z,12.91
2022-09-17T04:07:16.567Z,12.91
2022-09-17T04:09:45.475Z,12.88
2022-09-17T04:12:14.498Z,12.83
2022-09-17T04:14:45.199Z,12.84
2022-09-17T04:17:18.414Z,12.87
2022-09-17T04:19:47.400Z,12.87
2022-09-17T04:22:16.659Z,12.84
2022-09-17T04:24:45.818Z,12.80
2022-09-17T04:27:14.718Z,12.78
2022-09-17T04:29:45.101Z,12.80
2022-09-17T04:32:14.258Z,12.74
2022-09-17T04:34:43.538Z,12.76
2022-09-17T04:37:12.474Z,12.76
2022-09-17T04:39:41.454Z,12.72
2022-09-17T04:42:10.473Z,12.75
2022-09-17T04:44:41.718Z,12.71
2022-09-17T04:47:12.389Z,12.73
2022-09-17T04:49:42.941Z,12.73
2022-09-17T04:52:12.010Z,12.74
2022-09-17T04:54:41.073Z,12.74
2022-09-17T04:57:10.271Z,12.77
2022-09-17T04:59:39.325Z,12.77
2022-09-17T05:02:08.415Z,12.77
2022-09-17T05:04:39.020Z,12.71
2022-09-17T05:07:11.996Z,12.73
2022-09-17T05:09:44.460Z,12.77
2022-09-17T05:12:13.418Z,12.74
2022-09-17T05:14:42.296Z,12.75
2022-09-17T05:17:11.297Z,12.83
2022-09-17T05:19:44.014Z,12.81
2022-09-17T05:22:13.358Z,12.85
2022-09-17T05:24:44.860Z,12.88
2022-09-17T05:27:14.243Z,12.90
2022-09-17T05:29:43.410Z,12.90
2022-09-17T05:32:12.444Z,12.86
2022-09-17T05:34:42.918Z,12.93
2022-09-17T05:37:12.551Z,12.94
2022-09-17T05:39:41.658Z,12.94
2022-09-17T05:42:10.788Z,13.00
2022-09-17T05:44:39.906Z,13.07
2022-09-17T05:47:08.893Z,13.18
2022-09-17T05:49:38.012Z,13.27
2022-09-17T05:52:08.420Z,13.31
2022-09-17T05:54:37.517Z,13.31
2022-09-17T05:57:07.427Z,13.24
2022-09-17T05:59:36.654Z,13.16
2022-09-17T06:02:06.594Z,13.08
2022-09-17T06:04:35.652Z,13.07
2022-09-17T06:07:08.726Z,13.11
2022-09-17T06:09:40.687Z,13.11
2022-09-17T06:12:10.273Z,12.86
2022-09-17T06:14:43.695Z,13.34
2022-09-17T06:17:12.955Z,13.50
2022-09-17T06:19:42.071Z,13.67
2022-09-17T06:22:12.422Z,13.84
2022-09-17T06:24:41.487Z,13.94
2022-09-17T06:27:10.570Z,14.16
2022-09-17T06:29:40.537Z,14.17
2022-09-17T06:32:13.172Z,14.17
2022-09-17T06:34:42.484Z,14.21
2022-09-17T06:37:15.133Z,14.28
2022-09-17T06:39:46.088Z,14.28
2022-09-17T06:42:15.096Z,14.42
2022-09-17T06:44:43.897Z,14.59
2022-09-17T06:47:12.827Z,14.76
2022-09-17T06:49:46.795Z,14.89
2022-09-17T06:52:17.227Z,14.97
2022-09-17T06:54:46.198Z,14.94
2022-09-17T06:57:16.300Z,14.94
2022-09-17T06:59:46.765Z,14.99
2022-09-17T07:02:18.038Z,14.93
2022-09-17T07:04:56.759Z,14.95
2022-09-17T07:07:32.072Z,14.99
2022-09-17T07:10:02.789Z,15.22
2022-09-17T07:12:31.762Z,15.31
2022-09-17T07:15:00.728Z,15.09
2022-09-17T07:17:31.410Z,15.13
2022-09-17T07:20:07.412Z,15.27
2022-09-17T07:22:41.245Z,15.29
2022-09-17T07:25:11.081Z,15.23
2022-09-17T07:27:40.316Z,15.01
2022-09-17T07:30:10.619Z,14.85
2022-09-17T07:32:39.652Z,14.68
2022-09-17T07:35:09.127Z,14.57
2022-09-17T07:37:39.686Z,14.49
2022-09-17T07:40:10.130Z,14.44
2022-09-17T07:42:39.280Z,14.40
2022-09-17T07:45:10.074Z,14.54
2022-09-17T07:47:42.630Z,14.65
2022-09-17T07:50:11.784Z,14.67
2022-09-17T07:52:48.490Z,14.71
2022-09-17T07:55:17.973Z,15.23
2022-09-17T07:57:55.481Z,15.31
2022-09-17T08:00:24.620Z,15.27
2022-09-17T08:02:55.697Z,15.40
2022-09-17T08:05:25.842Z,15.65
2022-09-17T08:07:57.250Z,13.89
2022-09-17T08:10:27.213Z,15.59
2022-09-17T08:13:28.572Z,15.51
2022-09-17T08:16:06.567Z,15.46
2022-09-17T08:18:36.478Z,15.23
2022-09-17T08:21:07.388Z,14.97
2022-09-17T08:23:39.232Z,14.78
2022-09-17T08:26:14.059Z,14.51
2022-09-17T08:28:49.451Z,14.29
2022-09-17T08:31:20.266Z,14.28
2022-09-17T08:33:51.833Z,14.52
2022-09-17T08:36:22.803Z,14.52
2022-09-17T08:39:12.162Z,14.69
2022-09-17T08:42:06.659Z,15.10
2022-09-17T08:44:41.977Z,15.49
2022-09-17T08:47:22.403Z,15.35
2022-09-17T08:49:55.016Z,15.94
2022-09-17T08:53:05.252Z,16.38
2022-09-17T08:55:43.933Z,16.09
2022-09-17T08:58:52.422Z,16.07
2022-09-17T09:01:35.811Z,15.73
2022-09-17T09:04:53.828Z,14.87
2022-09-17T09:07:28.330Z,15.40
2022-09-17T09:10:12.394Z,15.08
2022-09-17T09:12:47.643Z,14.75
2022-09-17T09:15:36.106Z,14.56
2022-09-17T09:18:27.813Z,14.59
2022-09-17T09:21:22.212Z,14.78
2022-09-17T09:23:59.800Z,15.10
2022-09-17T09:26:45.903Z,15.25
2022-09-17T09:29:25.992Z,15.80
2022-09-17T09:32:17.043Z,15.05
2022-09-17T09:34:47.030Z,15.99
2022-09-17T09:37:21.092Z,15.77
2022-09-17T09:39:54.391Z,15.78
2022-09-17T09:42:32.420Z,15.80
2022-09-17T09:45:17.707Z,16.18
2022-09-17T09:48:05.456Z,16.39
2022-09-17T09:51:06.118Z,17.51
2022-09-17T09:53:54.450Z,17.99
2022-09-17T09:56:54.012Z,17.25
2022-09-17T09:59:30.520Z,17.76
2022-09-17T10:02:00.965Z,17.55
2022-09-17T10:04:38.419Z,17.40
2022-09-17T10:07:11.473Z,17.56
2022-09-17T10:09:52.964Z,17.65
2022-09-17T10:12:28.174Z,17.83
2022-09-17T10:15:26.786Z,17.82
2022-09-17T10:18:20.166Z,18.16
2022-09-17T10:21:00.446Z,18.48
2022-09-17T10:23:37.486Z,18.30
2022-09-17T10:26:06.682Z,17.94
2022-09-17T10:28:51.746Z,17.35
2022-09-17T10:31:21.003Z,16.93
2022-09-17T10:33:59.731Z,16.72
2022-09-17T10:36:42.352Z,16.30
2022-09-17T10:39:52.984Z,15.87
2022-09-17T10:42:29.424Z,15.86
2022-09-17T10:45:08.211Z,15.99
2022-09-17T10:48:13.431Z,16.25
2022-09-17T10:51:09.517Z,16.35
2022-09-17T10:57:31.182Z,15.68
2022-09-17T11:00:27.730Z,15.60
2022-09-17T11:03:41.554Z,15.70
2022-09-17T11:07:14.032Z,15.72
2022-09-17T11:09:54.715Z,15.30
2022-09-17T11:12:48.318Z,15.44
2022-09-17T11:15:36.925Z,15.30
2022-09-17T11:18:42.459Z,15.02
2022-09-17T11:21:40.966Z,14.90
2022-09-17T11:24:49.892Z,14.81
2022-09-17T11:27:37.710Z,15.09
2022-09-17T11:30:17.855Z,16.15
2022-09-17T11:33:22.010Z,17.02
2022-09-17T11:36:00.246Z,16.66
2022-09-17T11:38:40.566Z,16.43
2022-09-17T11:41:17.797Z,15.95
2022-09-17T11:43:53.606Z,15.90
2022-09-17T11:46:29.425Z,15.77
2022-09-17T11:49:06.520Z,15.59
2022-09-17T11:51:43.456Z,14.93
2022-09-17T11:54:26.286Z,15.74
2022-09-17T11:57:09.709Z,16.07
2022-09-17T11:59:48.020Z,16.43
2022-09-17T12:02:27.442Z,16.31
2022-09-17T12:05:05.063Z,16.59
2022-09-17T12:07:44.979Z,16.87
2022-09-17T12:10:39.008Z,16.82
2022-09-17T12:13:24.527Z,16.32
2022-09-17T12:16:05.794Z,16.27
2022-09-17T12:18:56.830Z,16.57
2022-09-17T12:21:35.088Z,16.55
2022-09-17T12:24:16.282Z,16.29
2022-09-17T12:27:14.448Z,16.40
2022-09-17T12:30:08.264Z,16.47
2022-09-17T12:32:58.763Z,16.47
2022-09-17T12:36:16.951Z,15.77
2022-09-17T12:39:16.325Z,15.41
2022-09-17T12:41:59.783Z,15.52
2022-09-17T12:45:09.081Z,15.45
2022-09-17T12:48:32.007Z,15.48
2022-09-17T12:51:23.123Z,15.48
2022-09-17T12:54:12.035Z,15.34
2022-09-17T12:56:58.079Z,15.57
2022-09-17T12:59:32.854Z,15.82
2022-09-17T13:02:38.348Z,15.88
2022-09-17T13:05:44.423Z,15.92
2022-09-17T13:08:50.396Z,16.01
2022-09-17T13:12:03.758Z,16.22
2022-09-17T13:15:06.852Z,16.00
2022-09-17T13:17:52.361Z,16.05
2022-09-17T13:20:45.748Z,16.01
2022-09-17T13:23:15.534Z,16.40
2022-09-17T13:25:55.848Z,16.47
2022-09-17T13:28:48.041Z,16.42
2022-09-17T13:31:51.119Z,16.26
2022-09-17T13:34:36.078Z,16.60
2022-09-17T13:37:21.923Z,16.77
2022-09-17T13:39:54.709Z,17.00
2022-09-17T13:42:29.013Z,16.96
2022-09-17T13:45:08.922Z,16.92
2022-09-17T13:47:52.456Z,16.69
2022-09-17T13:50:36.508Z,16.86
2022-09-17T13:53:19.632Z,16.89
2022-09-17T13:55:51.617Z,16.87
2022-09-17T13:58:27.961Z,16.62
2022-09-17T14:01:02.486Z,16.58
2022-09-17T14:04:06.834Z,16.43
2022-09-17T14:06:53.898Z,16.52
2022-09-17T14:09:39.220Z,16.19
2022-09-17T14:12:54.871Z,15.89
2022-09-17T14:16:05.650Z,15.62
2022-09-17T14:19:01.412Z,15.31
2022-09-17T14:21:35.421Z,15.51
2022-09-17T14:24:22.200Z,14.83
2022-09-17T14:27:08.272Z,15.48
2022-09-17T14:30:13.067Z,15.19
2022-09-17T14:32:57.713Z,13.70
2022-09-17T14:35:35.180Z,15.18
2022-09-17T14:38:12.408Z,15.20
2022-09-17T14:40:47.212Z,15.21
2022-09-17T14:43:28.697Z,14.68
2022-09-17T14:45:59.470Z,15.15
2022-09-17T14:48:37.325Z,15.21
2022-09-17T14:51:29.661Z,15.26
2022-09-17T14:54:25.043Z,15.50
2022-09-17T14:57:12.493Z,15.57
2022-09-17T15:00:01.644Z,15.64
2022-09-17T15:02:37.169Z,15.95
2022-09-17T15:05:31.535Z,15.83
2022-09-17T15:08:09.910Z,15.74
2022-09-17T15:10:49.713Z,15.62
2022-09-17T15:13:22.904Z,15.75
2022-09-17T15:16:03.174Z,15.26
2022-09-17T15:18:39.329Z,15.66
2022-09-17T15:21:31.687Z,15.71
2022-09-17T15:24:12.811Z,16.12
2022-09-17T15:27:30.681Z,16.35
2022-09-17T15:30:05.460Z,16.25
2022-09-17T15:32:36.232Z,16.43
2022-09-17T15:35:30.307Z,16.32
2022-09-17T15:41:22.198Z,15.99
2022-09-17T15:43:54.732Z,15.79
2022-09-17T15:46:35.295Z,14.90
2022-09-17T15:49:30.802Z,15.53
2022-09-17T15:52:40.778Z,15.45
2022-09-17T15:55:36.023Z,15.33
2022-09-17T15:58:20.740Z,15.14
2022-09-17T16:01:00.973Z,15.00
2022-09-17T16:04:19.131Z,14.77
2022-09-17T16:07:18.631Z,14.84
2022-09-17T16:09:55.244Z,14.94
2022-09-17T16:12:29.093Z,15.01
2022-09-17T16:15:00.874Z,15.08
2022-09-17T16:17:44.960Z,14.98
2022-09-17T16:20:22.207Z,15.08
2022-09-17T16:22:52.308Z,15.10
2022-09-17T16:25:25.035Z,15.11
2022-09-17T16:27:57.831Z,15.12
2022-09-17T16:30:27.612Z,15.20
2022-09-17T16:32:56.947Z,15.39
2022-09-17T16:35:28.516Z,15.53
2022-09-17T16:43:27.909Z,15.11
2022-09-17T16:46:46.469Z,14.87
2022-09-17T16:52:48.093Z,14.55
2022-09-17T16:56:03.806Z,14.45
2022-09-17T16:58:32.872Z,14.36
2022-09-17T17:01:11.951Z,14.26
2022-09-17T17:03:41.407Z,14.06
2022-09-17T17:06:17.589Z,13.92
2022-09-17T17:08:48.301Z,13.79
2022-09-17T17:11:17.704Z,13.62
2022-09-17T17:13:47.545Z,13.51
2022-09-17T17:16:17.689Z,13.38
2022-09-17T17:18:47.105Z,13.32
2022-09-17T17:21:16.753Z,13.21
2022-09-17T17:23:47.988Z,13.10
2022-09-17T17:26:17.513Z,13.05
2022-09-17T17:28:46.754Z,12.91
2022-09-17T17:31:15.446Z,12.59
2022-09-17T17:33:45.164Z,12.86
2022-09-17T17:36:14.512Z,12.69
2022-09-17T17:38:45.703Z,12.69
2022-09-17T17:41:18.230Z,12.66
2022-09-17T17:43:47.422Z,12.66
2022-09-17T17:46:39.864Z,12.50
2022-09-17T17:49:11.215Z,12.39
2022-09-17T17:51:52.470Z,12.25
2022-09-17T17:54:23.682Z,12.09
2022-09-17T18:00:16.468Z,12.02
2022-09-17T18:02:57.674Z,12.01
2022-09-17T18:05:29.691Z,11.92
2022-09-17T18:07:58.772Z,11.90
2022-09-17T18:11:12.277Z,11.86
2022-09-17T18:13:51.863Z,11.76
2022-09-17T18:16:50.146Z,11.69
2022-09-17T18:19:44.437Z,11.60
2022-09-17T18:22:15.623Z,11.43
2022-09-17T18:24:45.264Z,11.31
2022-09-17T18:27:16.315Z,11.23
2022-09-17T18:29:48.925Z,11.13
2022-09-17T18:32:17.966Z,11.12
2022-09-17T18:34:47.452Z,11.28
2022-09-17T18:37:42.863Z,11.55
2022-09-17T18:40:48.814Z,11.57
2022-09-17T18:43:30.672Z,11.59
2022-09-17T18:46:01.347Z,11.58
2022-09-17T18:48:36.368Z,11.53
2022-09-17T18:51:16.885Z,11.61
2022-09-17T18:53:51.334Z,11.62
2022-09-17T18:56:27.005Z,11.68
2022-09-17T18:58:57.881Z,11.68
2022-09-17T19:01:46.469Z,11.75
2022-09-17T19:04:15.531Z,11.80
2022-09-17T19:06:44.495Z,11.65
2022-09-17T19:09:16.236Z,11.54
2022-09-17T19:11:45.110Z,11.53
2022-09-17T19:14:13.986Z,11.56
2022-09-17T19:16:43.403Z,11.71
2022-09-17T19:19:14.064Z,11.77
2022-09-17T19:21:44.902Z,11.81
2022-09-17T19:24:14.215Z,11.84
2022-09-17T19:26:45.622Z,11.53
2022-09-17T19:29:16.615Z,11.75
2022-09-17T19:31:45.607Z,11.70
2022-09-17T19:34:19.363Z,11.68
2022-09-17T19:36:48.744Z,11.68
2022-09-17T19:39:17.988Z,11.67
2022-09-17T19:41:47.122Z,11.66
2022-09-17T19:44:16.406Z,11.64
2022-09-17T19:46:46.932Z,11.60
2022-09-17T19:49:17.477Z,11.60
2022-09-17T19:51:46.899Z,11.59
2022-09-17T19:54:16.039Z,11.59
2022-09-17T19:56:47.648Z,11.28
2022-09-17T19:59:19.520Z,11.60
2022-09-17T20:01:54.040Z,11.62
2022-09-17T20:04:24.779Z,11.61
2022-09-17T20:06:53.816Z,11.60
2022-09-17T20:09:25.351Z,11.61
2022-09-17T20:11:56.762Z,11.62
2022-09-17T20:14:27.789Z,11.62
2022-09-17T20:16:56.771Z,11.61
2022-09-17T20:19:30.069Z,11.62
2022-09-17T20:22:05.560Z,11.66
2022-09-17T20:24:35.168Z,11.65
2022-09-17T20:27:04.354Z,11.64
2022-09-17T20:29:33.485Z,11.64
2022-09-17T20:32:02.739Z,11.59
2022-09-17T20:34:33.892Z,11.59
2022-09-17T20:37:13.225Z,11.59
2022-09-17T20:39:43.023Z,11.61
2022-09-17T20:42:15.336Z,11.65
2022-09-17T20:44:44.663Z,11.65
2022-09-17T20:47:15.778Z,11.68
2022-09-17T20:49:46.461Z,11.71
2022-09-17T20:52:20.412Z,11.70
2022-09-17T20:54:50.020Z,11.63
2022-09-17T20:57:18.933Z,11.53
2022-09-17T20:59:53.332Z,11.46
2022-09-17T21:02:22.688Z,11.40
2022-09-17T21:04:53.810Z,11.39
2022-09-17T21:07:22.785Z,11.40
2022-09-17T21:09:51.692Z,11.41
2022-09-17T21:12:27.485Z,11.42
2022-09-17T21:14:56.882Z,11.38
2022-09-17T21:17:25.724Z,11.27
2022-09-17T21:19:56.125Z,11.17
2022-09-17T21:22:25.342Z,11.17
2022-09-17T21:24:54.590Z,11.15
2022-09-17T21:27:23.929Z,11.13
2022-09-17T21:29:52.875Z,11.12
2022-09-17T21:32:22.228Z,11.11
2022-09-17T21:34:56.239Z,11.10
2022-09-17T21:37:38.994Z,11.13
2022-09-17T21:40:09.555Z,11.16
2022-09-17T21:42:42.089Z,11.15
2022-09-17T21:45:12.103Z,11.16
2022-09-17T21:47:47.085Z,11.18
2022-09-17T21:50:41.118Z,11.16
2022-09-17T21:53:38.785Z,11.11
2022-09-17T21:56:23.084Z,11.06
2022-09-17T21:58:55.367Z,10.98
2022-09-17T22:01:27.508Z,10.98
2022-09-17T22:03:57.993Z,10.97
2022-09-17T22:06:29.368Z,10.94
2022-09-17T22:09:02.154Z,11.17
2022-09-17T22:11:33.131Z,11.25
2022-09-17T22:14:09.021Z,11.20
2022-09-17T22:16:40.702Z,11.15
2022-09-17T22:19:11.215Z,11.03
2022-09-17T22:21:42.867Z,11.02
2022-09-17T22:24:13.737Z,11.00
2022-09-17T22:26:45.208Z,10.99
2022-09-17T22:29:16.425Z,10.95
2022-09-17T22:31:46.680Z,10.93
2022-09-17T22:34:18.089Z,10.93
2022-09-17T22:36:47.239Z,10.90
2022-09-17T22:39:19.184Z,10.90
2022-09-17T22:41:49.412Z,10.83
2022-09-17T22:44:20.006Z,10.82
2022-09-17T22:46:51.468Z,10.82
2022-09-17T22:49:20.834Z,10.76
2022-09-17T22:51:49.723Z,10.75
2022-09-17T22:54:20.653Z,10.71
2022-09-17T22:56:50.213Z,10.75
2022-09-17T22:59:19.526Z,10.72
2022-09-17T23:01:48.686Z,10.70
2022-09-17T23:04:17.636Z,10.70
2022-09-17T23:06:46.688Z,10.69
2022-09-17T23:09:16.245Z,10.72
2022-09-17T23:11:46.607Z,10.65
2022-09-17T23:14:19.541Z,10.62
2022-09-17T23:16:49.645Z,10.63
2022-09-17T23:19:20.002Z,10.61
2022-09-17T23:21:49.213Z,10.62
2022-09-17T23:24:21.129Z,10.68
2022-09-17T23:26:51.809Z,10.68
2022-09-17T23:29:20.978Z,10.70
2022-09-17T23:31:50.157Z,10.72
2022-09-17T23:34:19.206Z,10.73
2022-09-17T23:36:48.720Z,10.75
2022-09-17T23:39:18.217Z,10.75
2022-09-17T23:41:48.342Z,10.77
2022-09-17T23:44:19.254Z,10.77
2022-09-17T23:46:48.823Z,10.77
2022-09-17T23:49:17.926Z,10.79
2022-09-17T23:51:46.955Z,10.79
2022-09-17T23:54:16.309Z,10.81
2022-09-17T23:56:45.400Z,10.83
2022-09-17T23:59:14.377Z,10.81
